Time;durP1;ratioP1;P1;durP2;ratioP2;P2;SDS_P1;SDS_P2;PMS_P1;PMS_P2;Temp;Humidity;BMP_temperature;BMP_pressure;BME280_temperature;BME280_humidity;BME280_pressure;Samples;Min_cycle;Max_cycle;Signal;HPM_P1;HPM_P2
2021/07/03 00:01:56;;;;;;;13.20;11.65;;;16.40;99.90;;;;;;5036001;28;20487;-79
2021/07/03 00:04:23;;;;;;;15.15;10.85;;;16.40;99.90;;;;;;5037963;28;20040;-79
2021/07/03 00:06:50;;;;;;;13.40;11.85;;;16.40;99.90;;;;;;5022482;28;20036;-79
2021/07/03 00:09:16;;;;;;;14.52;11.48;;;16.40;99.90;;;;;;5038076;28;20414;-77
2021/07/03 00:11:44;;;;;;;12.20;10.77;;;16.40;99.90;;;;;;5035950;28;20487;-75
2021/07/03 00:14:11;;;;;;;16.35;12.27;;;16.40;99.90;;;;;;5031513;28;20472;-78
2021/07/03 00:16:38;;;;;;;17.65;11.63;;;16.30;99.90;;;;;;5019314;28;20030;-76
2021/07/03 00:19:05;;;;;;;14.75;11.75;;;16.40;99.90;;;;;;5036009;28;20497;-76
2021/07/03 00:21:31;;;;;;;16.42;11.27;;;16.30;99.90;;;;;;5025592;28;20025;-78
2021/07/03 00:23:58;;;;;;;13.93;11.63;;;16.40;99.90;;;;;;5030204;28;20038;-78
2021/07/03 00:26:25;;;;;;;16.88;11.23;;;16.40;99.90;;;;;;5019208;28;20483;-78
2021/07/03 00:28:51;;;;;;;14.38;11.10;;;16.50;99.90;;;;;;5017879;28;20052;-78
2021/07/03 00:31:18;;;;;;;13.93;11.15;;;16.40;99.90;;;;;;5022060;28;20052;-79
2021/07/03 00:33:44;;;;;;;12.25;10.73;;;16.30;99.90;;;;;;5016854;28;20054;-76
2021/07/03 00:36:10;;;;;;;12.95;11.20;;;16.20;99.90;;;;;;5025503;28;20048;-78
2021/07/03 00:38:37;;;;;;;13.05;10.85;;;16.20;99.90;;;;;;5035896;28;20041;-78
2021/07/03 00:41:04;;;;;;;12.82;10.90;;;16.00;99.90;;;;;;5035608;28;20049;-78
2021/07/03 00:43:30;;;;;;;13.48;11.68;;;16.00;99.90;;;;;;5041417;28;20040;-77
2021/07/03 00:45:56;;;;;;;13.80;11.77;;;15.90;99.90;;;;;;5038790;28;20041;-77
2021/07/03 00:48:23;;;;;;;13.27;11.32;;;15.80;99.90;;;;;;5038546;28;20046;-78
2021/07/03 00:50:50;;;;;;;20.17;12.00;;;15.80;99.90;;;;;;5035538;28;20037;-78
2021/07/03 00:53:19;;;;;;;14.23;11.45;;;15.70;99.90;;;;;;5022699;28;20049;-78
2021/07/03 00:55:49;;;;;;;13.82;11.18;;;15.60;99.90;;;;;;5022033;28;20057;-78
2021/07/03 00:58:16;;;;;;;20.55;11.88;;;15.70;99.90;;;;;;5015488;28;20045;-78
2021/07/03 01:00:42;;;;;;;13.63;12.00;;;15.70;99.90;;;;;;5017540;28;20046;-76
2021/07/03 01:03:09;;;;;;;13.75;11.48;;;15.60;99.90;;;;;;5029362;28;20038;-78
2021/07/03 01:05:35;;;;;;;14.88;11.68;;;15.70;99.90;;;;;;5022493;28;20042;-77
2021/07/03 01:08:02;;;;;;;13.38;11.93;;;15.70;99.90;;;;;;5029854;28;20094;-79
2021/07/03 01:10:34;;;;;;;12.60;10.20;;;15.70;99.90;;;;;;5016792;28;20046;-77
2021/07/03 01:13:07;;;;;;;12.88;11.52;;;15.70;99.90;;;;;;5017214;28;20391;-76
2021/07/03 01:15:35;;;;;;;13.23;10.77;;;15.60;99.90;;;;;;5030389;28;20050;-78
2021/07/03 01:18:02;;;;;;;14.20;11.25;;;15.60;99.90;;;;;;5016642;28;20042;-79
2021/07/03 01:20:29;;;;;;;21.98;12.32;;;15.50;99.90;;;;;;5017544;28;20034;-77
2021/07/03 01:22:56;;;;;;;14.02;11.40;;;15.30;99.90;;;;;;5032032;28;20053;-77
2021/07/03 01:25:24;;;;;;;16.05;12.07;;;15.10;99.90;;;;;;5016441;28;20060;-78
2021/07/03 01:28:05;;;;;;;18.30;13.07;;;15.00;99.90;;;;;;4998479;28;20394;-78
2021/07/03 01:30:36;;;;;;;16.83;12.13;;;15.00;99.90;;;;;;5010747;28;20049;-78
2021/07/03 01:33:03;;;;;;;17.00;12.68;;;14.80;99.90;;;;;;5014984;28;20483;-78
2021/07/03 01:35:31;;;;;;;16.98;12.63;;;14.70;99.90;;;;;;5014517;28;20053;-78
2021/07/03 01:38:03;;;;;;;18.40;13.57;;;14.50;99.90;;;;;;5012871;28;20041;-79
2021/07/03 01:40:32;;;;;;;17.23;12.73;;;14.40;99.90;;;;;;4996247;28;20044;-78
2021/07/03 01:43:01;;;;;;;17.25;13.57;;;14.30;99.90;;;;;;5010731;28;20046;-76
2021/07/03 01:45:28;;;;;;;17.08;13.05;;;14.30;99.90;;;;;;4995286;28;20061;-78
2021/07/03 01:47:58;;;;;;;18.23;13.45;;;14.20;99.90;;;;;;5028952;28;20052;-78
2021/07/03 01:50:24;;;;;;;18.30;13.77;;;14.10;99.90;;;;;;5031836;28;20037;-77
2021/07/03 01:52:51;;;;;;;20.73;15.18;;;14.10;99.90;;;;;;5021876;28;20037;-77
2021/07/03 01:55:20;;;;;;;21.20;13.95;;;14.10;99.90;;;;;;5010928;28;20479;-78
2021/07/03 01:57:47;;;;;;;18.98;13.65;;;14.10;99.90;;;;;;5012393;28;20403;-77
2021/07/03 02:00:40;;;;;;;16.55;13.65;;;14.10;99.90;;;;;;5023933;28;20421;-78
2021/07/03 02:03:15;;;;;;;20.88;14.75;;;14.10;99.90;;;;;;5016554;28;20490;-78
2021/07/03 02:05:46;;;;;;;;;;;14.00;99.90;;;;;;5030510;28;20034;-73
2021/07/03 02:08:17;;;;;;;19.48;14.68;;;14.10;99.90;;;;;;5027697;28;19909;-79
2021/07/03 02:10:48;;;;;;;17.70;14.90;;;14.10;99.90;;;;;;5011863;28;20039;-78
2021/07/03 02:13:15;;;;;;;18.08;14.02;;;14.10;99.90;;;;;;4996870;28;20391;-79
2021/07/03 02:15:41;;;;;;;23.90;13.82;;;14.10;99.90;;;;;;5027993;28;20076;-78
2021/07/03 02:18:15;;;;;;;19.52;14.02;;;14.10;99.90;;;;;;5012649;28;20038;-80
2021/07/03 02:20:42;;;;;;;19.35;15.10;;;14.10;99.90;;;;;;5013373;28;20044;-79
2021/07/03 02:23:15;;;;;;;17.48;13.32;;;14.00;99.90;;;;;;5013807;28;20398;-80
2021/07/03 02:25:46;;;;;;;17.75;13.45;;;13.90;99.90;;;;;;5016637;28;20038;-75
2021/07/03 02:28:17;;;;;;;20.42;14.73;;;13.90;99.90;;;;;;5016896;28;20046;-79
2021/07/03 02:30:52;;;;;;;19.10;14.43;;;13.90;99.90;;;;;;5025169;28;20407;-77
2021/07/03 02:33:20;;;;;;;18.42;13.52;;;13.80;99.90;;;;;;4998387;28;20052;-78
2021/07/03 02:35:49;;;;;;;17.63;14.00;;;13.70;99.90;;;;;;5027804;28;20041;-77
2021/07/03 02:38:17;;;;;;;19.30;15.27;;;13.70;99.90;;;;;;5016224;28;20049;-78
2021/07/03 02:40:47;;;;;;;19.60;15.30;;;13.60;99.90;;;;;;4998915;28;20041;-74
2021/07/03 02:43:13;;;;;;;18.50;14.13;;;13.50;99.90;;;;;;5016406;28;20053;-79
2021/07/03 02:45:42;;;;;;;18.15;14.75;;;13.40;99.90;;;;;;5014422;28;20050;-79
2021/07/03 02:48:09;;;;;;;20.90;16.35;;;13.40;99.90;;;;;;4997752;28;20042;-78
2021/07/03 02:50:35;;;;;;;19.10;14.00;;;13.40;99.90;;;;;;5008622;28;20060;-78
2021/07/03 02:53:05;;;;;;;19.65;14.07;;;13.30;99.90;;;;;;5026928;28;20045;-78
2021/07/03 02:55:32;;;;;;;18.23;14.48;;;13.40;99.90;;;;;;5020764;28;20049;-79
2021/07/03 02:57:58;;;;;;;18.52;13.77;;;13.50;99.90;;;;;;5031302;28;20466;-79
2021/07/03 03:00:26;;;;;;;18.17;14.30;;;13.40;99.90;;;;;;5022843;28;20045;-77
2021/07/03 03:02:53;;;;;;;19.80;14.18;;;13.30;99.90;;;;;;5006942;28;20057;-78
2021/07/03 03:05:22;;;;;;;20.92;14.40;;;13.20;99.90;;;;;;5012233;28;20042;-79
2021/07/03 03:07:48;;;;;;;19.33;14.00;;;13.20;99.90;;;;;;5021914;28;20036;-74
2021/07/03 03:10:17;;;;;;;16.75;13.63;;;13.20;99.90;;;;;;5038526;28;20042;-78
2021/07/03 03:12:47;;;;;;;16.90;14.13;;;13.20;99.90;;;;;;5043642;28;20043;-74
2021/07/03 03:15:15;;;;;;;16.42;14.43;;;13.20;99.90;;;;;;5030963;28;20046;-77
2021/07/03 03:17:43;;;;;;;15.90;13.20;;;13.20;99.90;;;;;;5041008;28;20029;-76
2021/07/03 03:20:11;;;;;;;17.05;13.65;;;13.10;99.90;;;;;;5039682;28;20043;-78
2021/07/03 03:22:39;;;;;;;17.08;13.85;;;13.10;99.90;;;;;;5011400;28;20471;-78
2021/07/03 03:25:07;;;;;;;15.85;13.43;;;13.10;99.90;;;;;;5018322;28;20049;-78
2021/07/03 03:27:36;;;;;;;18.48;14.30;;;13.10;99.90;;;;;;5019515;28;20044;-79
2021/07/03 03:30:05;;;;;;;19.95;13.65;;;13.20;99.90;;;;;;5032742;28;20050;-76
2021/07/03 03:32:33;;;;;;;17.60;14.95;;;13.20;99.90;;;;;;5033040;28;20101;-78
2021/07/03 03:35:00;;;;;;;18.33;15.40;;;13.30;99.90;;;;;;5033417;28;20498;-78
2021/07/03 03:37:27;;;;;;;16.42;13.18;;;13.30;99.90;;;;;;5033696;28;20041;-78
2021/07/03 03:39:54;;;;;;;19.77;14.77;;;13.30;99.90;;;;;;5033260;28;20049;-78
2021/07/03 03:42:20;;;;;;;16.48;14.45;;;13.20;99.90;;;;;;5022870;28;20406;-79
2021/07/03 03:44:48;;;;;;;17.83;14.07;;;13.30;99.90;;;;;;5033576;28;20053;-76
2021/07/03 03:47:14;;;;;;;21.33;14.85;;;13.40;99.90;;;;;;5012615;28;20403;-79
2021/07/03 03:49:42;;;;;;;19.90;14.18;;;13.50;99.90;;;;;;5009232;28;20050;-80
2021/07/03 03:52:16;;;;;;;15.77;12.93;;;13.40;99.90;;;;;;5013665;28;20045;-78
2021/07/03 03:54:43;;;;;;;18.65;13.40;;;13.30;99.90;;;;;;5034670;28;20044;-79
2021/07/03 03:57:21;;;;;;;19.38;13.52;;;13.30;99.90;;;;;;5034115;28;20034;-78
2021/07/03 03:59:52;;;;;;;18.10;13.23;;;13.40;99.90;;;;;;5035258;28;20038;-75
2021/07/03 04:02:20;;;;;;;17.90;13.35;;;13.60;99.90;;;;;;5018338;28;20041;-79
2021/07/03 04:04:50;;;;;;;16.13;13.05;;;13.60;99.90;;;;;;5000529;28;20164;-75
2021/07/03 04:07:20;;;;;;;17.73;12.45;;;13.50;99.90;;;;;;5015711;28;20423;-79
2021/07/03 04:09:49;;;;;;;14.77;13.23;;;13.40;99.90;;;;;;5013428;28;20038;-74
2021/07/03 04:12:17;;;;;;;14.52;12.70;;;13.40;99.90;;;;;;5012786;28;20045;-78
2021/07/03 04:14:43;;;;;;;15.32;12.85;;;13.40;99.90;;;;;;5029656;28;20495;-78
2021/07/03 04:17:09;;;;;;;15.88;13.32;;;13.50;99.90;;;;;;5032168;28;20048;-78
2021/07/03 04:19:36;;;;;;;17.50;12.80;;;13.60;99.90;;;;;;5032762;28;20045;-78
2021/07/03 04:22:03;;;;;;;14.25;12.65;;;13.60;99.90;;;;;;5030993;28;20040;-78
2021/07/03 04:24:30;;;;;;;16.42;12.55;;;13.70;99.90;;;;;;5027823;28;20048;-78
2021/07/03 04:26:56;;;;;;;18.05;14.23;;;13.70;99.90;;;;;;5001590;28;20046;-78
2021/07/03 04:29:22;;;;;;;13.90;12.45;;;13.80;99.90;;;;;;4996699;28;20046;-78
2021/07/03 04:31:49;;;;;;;14.85;11.63;;;13.80;99.90;;;;;;5013235;28;20041;-75
2021/07/03 04:34:15;;;;;;;16.75;12.38;;;14.00;99.90;;;;;;5013637;28;20046;-78
2021/07/03 04:36:42;;;;;;;12.35;11.05;;;14.30;99.90;;;;;;5014506;28;20041;-78
2021/07/03 04:39:09;;;;;;;13.20;11.10;;;14.60;99.90;;;;;;5011774;28;20126;-79
2021/07/03 04:41:37;;;;;;;11.32;10.05;;;15.30;99.90;;;;;;5012731;28;20042;-79
2021/07/03 04:44:05;;;;;;;18.75;10.40;;;16.30;99.90;;;;;;5021867;28;20502;-78
2021/07/03 04:46:33;;;;;;;11.02;9.05;;;17.50;99.90;;;;;;5018343;28;20391;-78
2021/07/03 04:49:00;;;;;;;9.88;8.88;;;18.80;99.90;;;;;;5024557;28;20037;-78
2021/07/03 04:51:26;;;;;;;9.13;8.23;;;19.90;99.90;;;;;;5038832;28;20029;-79
2021/07/03 04:53:52;;;;;;;12.75;8.32;;;20.80;97.50;;;;;;5023687;28;20478;-77
2021/07/03 04:56:19;;;;;;;9.18;8.20;;;20.90;95.30;;;;;;5021047;28;20049;-78
2021/07/03 04:58:45;;;;;;;9.13;8.23;;;20.40;95.70;;;;;;5037263;28;20410;-78
2021/07/03 05:01:11;;;;;;;8.88;8.00;;;20.60;95.10;;;;;;5016691;28;20074;-78
2021/07/03 05:03:38;;;;;;;9.48;8.20;;;21.40;93.60;;;;;;5032808;28;20036;-78
2021/07/03 05:06:04;;;;;;;10.68;8.90;;;22.30;92.10;;;;;;5028072;28;20034;-78
2021/07/03 05:08:30;;;;;;;9.20;8.40;;;22.50;90.50;;;;;;5020392;28;20033;-77
2021/07/03 05:10:56;;;;;;;8.25;7.32;;;22.80;90.90;;;;;;5023210;28;20046;-78
2021/07/03 05:13:23;;;;;;;8.45;7.65;;;23.00;88.20;;;;;;5033478;28;20038;-78
2021/07/03 05:15:49;;;;;;;8.82;7.78;;;22.40;89.90;;;;;;5032750;28;20052;-75
2021/07/03 05:18:15;;;;;;;10.07;9.15;;;22.90;88.10;;;;;;5027805;28;20029;-78
2021/07/03 05:20:42;;;;;;;10.60;9.52;;;23.50;85.30;;;;;;5013153;28;20046;-78
2021/07/03 05:23:08;;;;;;;10.52;9.52;;;23.90;82.30;;;;;;5013031;28;20043;-78
2021/07/03 05:25:34;;;;;;;10.45;9.45;;;24.30;81.80;;;;;;5012235;28;20045;-78
2021/07/03 05:28:00;;;;;;;11.80;9.32;;;24.80;79.50;;;;;;5021264;28;20037;-78
2021/07/03 05:30:26;;;;;;;13.32;10.07;;;25.30;77.00;;;;;;5031419;28;20071;-79
2021/07/03 05:32:53;;;;;;;12.57;11.23;;;25.10;77.30;;;;;;5024699;28;20040;-76
2021/07/03 05:35:19;;;;;;;12.82;11.63;;;24.60;76.90;;;;;;5033651;28;20037;-79
2021/07/03 05:37:45;;;;;;;11.98;10.45;;;23.80;79.10;;;;;;5026270;28;20388;-79
2021/07/03 05:40:13;;;;;;;13.27;10.40;;;23.50;80.10;;;;;;4995513;28;20037;-79
2021/07/03 05:42:39;;;;;;;12.95;10.32;;;24.40;76.90;;;;;;5018194;28;20029;-78
2021/07/03 05:45:06;;;;;;;11.52;10.45;;;24.60;77.00;;;;;;5016390;28;20062;-78
2021/07/03 05:47:33;;;;;;;13.05;11.15;;;24.80;74.50;;;;;;5027187;28;20497;-79
2021/07/03 05:49:59;;;;;;;14.02;11.02;;;23.80;77.30;;;;;;5029897;28;20386;-78
2021/07/03 05:52:25;;;;;;;12.32;10.48;;;23.40;78.10;;;;;;5013678;28;20034;-77
2021/07/03 05:54:51;;;;;;;10.98;9.85;;;23.00;78.40;;;;;;5033394;28;20033;-76
2021/07/03 05:57:18;;;;;;;11.57;10.18;;;22.70;80.40;;;;;;5032905;28;20467;-78
2021/07/03 05:59:45;;;;;;;11.82;10.15;;;22.50;80.40;;;;;;5036284;28;20026;-77
2021/07/03 06:02:11;;;;;;;11.10;10.02;;;23.20;79.30;;;;;;5039419;28;20025;-77
2021/07/03 06:04:37;;;;;;;10.38;9.35;;;23.70;77.40;;;;;;5021017;28;20050;-78
2021/07/03 06:07:03;;;;;;;11.15;9.52;;;25.10;76.70;;;;;;5007249;28;20042;-78
2021/07/03 06:09:29;;;;;;;10.05;9.05;;;25.50;70.40;;;;;;5018880;28;20034;-79
2021/07/03 06:11:57;;;;;;;12.45;9.55;;;25.50;72.00;;;;;;5011374;28;20033;-79
2021/07/03 06:14:23;;;;;;;12.95;9.77;;;26.00;71.00;;;;;;5019834;28;20042;-78
2021/07/03 06:16:49;;;;;;;10.32;9.32;;;25.30;71.50;;;;;;5018579;28;20033;-78
2021/07/03 06:19:19;;;;;;;12.93;9.77;;;25.30;70.90;;;;;;5017930;28;20065;-79
2021/07/03 06:21:46;;;;;;;10.35;9.25;;;25.20;71.50;;;;;;5033521;28;20032;-77
2021/07/03 06:24:13;;;;;;;11.52;8.90;;;25.70;72.40;;;;;;5032657;28;20049;-77
2021/07/03 06:26:42;;;;;;;12.00;9.23;;;26.80;67.80;;;;;;5021637;28;20033;-77
2021/07/03 06:29:09;;;;;;;9.93;8.90;;;26.50;67.50;;;;;;5021573;28;20029;-77
2021/07/03 06:31:35;;;;;;;10.32;9.30;;;26.30;69.70;;;;;;5037592;28;20459;-78
2021/07/03 06:34:01;;;;;;;9.20;7.53;;;26.60;67.90;;;;;;5038027;28;20368;-78
2021/07/03 06:36:29;;;;;;;9.60;8.00;;;26.50;66.60;;;;;;5037571;28;20399;-79
2021/07/03 06:38:56;;;;;;;7.60;6.90;;;26.50;65.90;;;;;;5036276;28;20033;-77
2021/07/03 06:41:23;;;;;;;8.73;7.93;;;26.50;65.30;;;;;;5032749;28;20021;-78
2021/07/03 06:43:49;;;;;;;8.20;7.50;;;26.70;65.20;;;;;;5019411;28;20046;-77
2021/07/03 06:46:15;;;;;;;8.90;7.90;;;27.10;64.20;;;;;;4984530;28;20061;-77
2021/07/03 06:48:41;;;;;;;9.57;8.13;;;26.70;62.30;;;;;;5008687;28;20038;-77
2021/07/03 06:51:07;;;;;;;7.82;7.03;;;25.40;64.90;;;;;;5005605;28;20428;-78
2021/07/03 06:53:34;;;;;;;6.93;6.32;;;25.20;65.90;;;;;;5017287;28;20034;-79
2021/07/03 06:56:01;;;;;;;7.80;7.00;;;25.70;64.70;;;;;;5002781;28;20038;-79
2021/07/03 06:58:27;;;;;;;7.82;7.07;;;26.60;63.30;;;;;;5004542;28;20044;-78
2021/07/03 07:00:54;;;;;;;7.53;6.53;;;27.80;62.30;;;;;;5015993;28;20379;-76
2021/07/03 07:03:20;;;;;;;7.32;6.07;;;28.00;60.00;;;;;;5000838;28;20030;-76
2021/07/03 07:05:46;;;;;;;7.38;6.68;;;27.00;63.10;;;;;;4978922;28;20154;-79
2021/07/03 07:08:12;;;;;;;7.85;6.85;;;26.90;60.90;;;;;;5003978;28;20026;-78
2021/07/03 07:10:38;;;;;;;6.63;6.00;;;27.60;61.00;;;;;;5014115;28;20041;-79
2021/07/03 07:13:07;;;;;;;7.22;6.53;;;28.00;60.60;;;;;;5014741;28;20033;-79
2021/07/03 07:15:33;;;;;;;7.70;6.90;;;28.00;60.60;;;;;;5014352;28;20030;-76
2021/07/03 07:18:00;;;;;;;9.25;5.63;;;28.10;59.70;;;;;;5014338;28;20041;-77
2021/07/03 07:20:26;;;;;;;9.38;5.88;;;28.80;57.80;;;;;;5012663;28;20037;-77
2021/07/03 07:22:52;;;;;;;7.35;6.65;;;29.20;58.30;;;;;;4995468;28;20037;-76
2021/07/03 07:25:18;;;;;;;8.60;7.10;;;28.80;57.20;;;;;;5013514;28;20467;-78
2021/07/03 07:27:45;;;;;;;8.95;6.68;;;28.70;57.30;;;;;;5014384;28;20482;-78
2021/07/03 07:30:13;;;;;;;7.82;6.30;;;27.20;59.40;;;;;;5003884;28;20596;-78
2021/07/03 07:32:39;;;;;;;7.85;7.07;;;27.20;60.00;;;;;;5004470;28;20042;-78
2021/07/03 07:35:05;;;;;;;7.93;7.20;;;27.30;59.30;;;;;;5014089;28;20044;-78
2021/07/03 07:37:32;;;;;;;8.40;7.53;;;25.90;61.20;;;;;;5002658;28;20034;-79
2021/07/03 07:39:58;;;;;;;23.02;10.00;;;24.90;65.00;;;;;;5013427;28;20042;-78
2021/07/03 07:42:24;;;;;;;8.48;7.47;;;25.80;65.00;;;;;;5004715;28;20053;-78
2021/07/03 07:44:50;;;;;;;8.43;7.63;;;27.70;60.40;;;;;;5004522;28;20057;-72
2021/07/03 07:47:16;;;;;;;7.22;6.53;;;28.80;58.50;;;;;;5014886;28;20049;-77
2021/07/03 07:49:42;;;;;;;7.18;6.38;;;29.20;56.10;;;;;;5017196;28;20368;-78
2021/07/03 07:52:09;;;;;;;7.80;6.43;;;28.60;55.90;;;;;;5030954;28;20455;-77
2021/07/03 07:54:35;;;;;;;10.23;7.28;;;29.00;56.10;;;;;;5021054;28;20045;-78
2021/07/03 07:57:01;;;;;;;8.80;7.82;;;27.40;58.10;;;;;;5022003;28;20030;-77
2021/07/03 07:59:27;;;;;;;7.10;6.20;;;27.30;57.60;;;;;;5016163;28;20026;-80
2021/07/03 08:01:54;;;;;;;5.85;5.25;;;27.40;58.20;;;;;;5026625;28;20036;-75
2021/07/03 08:04:20;;;;;;;7.88;6.07;;;27.60;56.30;;;;;;5025065;28;20042;-77
2021/07/03 08:06:46;;;;;;;6.57;5.55;;;27.90;55.10;;;;;;5017209;28;20040;-78
2021/07/03 08:09:13;;;;;;;7.47;6.45;;;28.20;54.80;;;;;;5014182;28;20602;-78
2021/07/03 08:11:39;;;;;;;6.60;6.00;;;28.90;56.50;;;;;;5022752;28;20022;-81
2021/07/03 08:14:06;;;;;;;10.00;6.53;;;29.30;55.80;;;;;;5019440;28;20216;-78
2021/07/03 08:16:32;;;;;;;7.30;5.75;;;29.80;55.60;;;;;;5032577;28;20463;-81
2021/07/03 08:18:58;;;;;;;6.82;5.90;;;29.10;54.50;;;;;;5013534;28;20030;-80
2021/07/03 08:21:25;;;;;;;8.18;7.00;;;28.50;56.40;;;;;;5029482;28;20038;-79
2021/07/03 08:23:52;;;;;;;9.27;7.57;;;28.90;55.60;;;;;;5027859;28;20038;-75
2021/07/03 08:26:19;;;;;;;9.02;6.10;;;28.70;55.60;;;;;;5024306;28;20033;-79
2021/07/03 08:28:45;;;;;;;19.95;10.40;;;28.40;57.40;;;;;;5021123;28;20149;-78
2021/07/03 08:31:11;;;;;;;6.55;5.93;;;29.10;57.30;;;;;;5023254;28;20040;-79
2021/07/03 08:33:37;;;;;;;9.80;6.72;;;30.50;55.20;;;;;;5018941;28;20053;-79
2021/07/03 08:36:04;;;;;;;6.30;5.70;;;30.10;56.10;;;;;;5014519;28;20033;-78
2021/07/03 08:38:32;;;;;;;6.25;5.65;;;30.50;53.40;;;;;;5022823;28;20021;-76
2021/07/03 08:40:59;;;;;;;8.25;5.70;;;30.40;52.60;;;;;;5011982;28;20045;-79
2021/07/03 08:43:25;;;;;;;8.93;5.90;;;30.00;53.80;;;;;;5029930;28;20029;-77
2021/07/03 08:45:56;;;;;;;8.93;6.38;;;29.60;55.10;;;;;;5023320;28;20061;-76
2021/07/03 08:48:23;;;;;;;7.05;6.32;;;30.00;52.80;;;;;;5025660;28;20037;-80
2021/07/03 08:50:50;;;;;;;6.28;5.65;;;29.40;53.60;;;;;;5030351;28;20034;-79
2021/07/03 08:53:16;;;;;;;7.15;6.30;;;29.50;54.80;;;;;;5012527;28;20489;-79
2021/07/03 08:55:42;;;;;;;6.65;5.82;;;29.70;52.90;;;;;;5022830;28;20486;-79
2021/07/03 08:58:10;;;;;;;7.35;6.15;;;29.00;54.70;;;;;;5017866;28;20044;-79
2021/07/03 09:00:40;;;;;;;6.53;5.93;;;29.80;53.90;;;;;;5023959;28;20033;-79
2021/07/03 09:03:16;;;;;;;8.18;6.30;;;30.30;53.50;;;;;;5022138;28;20037;-79
2021/07/03 09:05:49;;;;;;;6.53;5.80;;;30.20;52.70;;;;;;4999633;28;20515;-79
2021/07/03 09:08:16;;;;;;;6.72;5.82;;;30.00;53.00;;;;;;5014472;28;20053;-80
2021/07/03 09:10:42;;;;;;;7.45;5.57;;;29.40;52.60;;;;;;4995979;28;20045;-79
2021/07/03 09:13:09;;;;;;;7.20;6.40;;;28.60;56.20;;;;;;5017179;28;20040;-80
2021/07/03 09:15:39;;;;;;;7.45;6.20;;;28.00;55.20;;;;;;5032583;28;20060;-79
2021/07/03 09:18:09;;;;;;;5.97;5.38;;;27.20;58.90;;;;;;5031122;28;20045;-80
2021/07/03 09:20:41;;;;;;;5.63;5.13;;;28.30;54.80;;;;;;5031752;28;20037;-81
2021/07/03 09:23:22;;;;;;;6.70;5.22;;;28.70;54.10;;;;;;5031832;28;20025;-81
2021/07/03 09:25:51;;;;;;;6.50;5.90;;;28.10;55.00;;;;;;5034399;28;20152;-80
2021/07/03 09:28:26;;;;;;;7.80;5.53;;;28.50;55.80;;;;;;5045113;28;20024;-84
2021/07/03 09:30:55;;;;;;;7.47;4.95;;;29.50;55.50;;;;;;5025931;28;20042;-76
2021/07/03 09:33:29;;;;;;;5.55;4.95;;;30.30;52.80;;;;;;5028385;28;20029;-80
2021/07/03 09:36:03;;;;;;;5.72;5.22;;;30.40;52.10;;;;;;5031567;28;20044;-80
2021/07/03 09:38:35;;;;;;;6.18;5.60;;;29.10;54.80;;;;;;5031796;28;20029;-79
2021/07/03 09:41:15;;;;;;;6.20;5.60;;;29.30;53.70;;;;;;5032490;28;20041;-81
2021/07/03 09:44:03;;;;;;;6.10;5.45;;;29.10;53.90;;;;;;5016097;28;20388;-80
2021/07/03 09:46:52;;;;;;;5.60;5.07;;;29.50;54.10;;;;;;5025207;28;20038;-82
2021/07/03 09:49:22;;;;;;;5.78;5.13;;;29.30;53.80;;;;;;5027379;28;20398;-79
2021/07/03 09:51:52;;;;;;;5.90;5.13;;;27.50;53.90;;;;;;5022117;28;20041;-86
2021/07/03 09:54:20;;;;;;;7.13;5.65;;;26.60;55.60;;;;;;5023055;28;20033;-74
2021/07/03 09:56:48;;;;;;;7.38;5.53;;;26.90;55.60;;;;;;5031654;28;20374;-74
2021/07/03 09:59:14;;;;;;;5.72;5.07;;;28.20;54.50;;;;;;5021158;28;20371;-74
2021/07/03 10:01:44;;;;;;;5.47;4.97;;;29.40;54.00;;;;;;5019236;28;20026;-82
2021/07/03 10:04:10;;;;;;;6.00;5.40;;;29.70;53.40;;;;;;5028639;28;20060;-81
2021/07/03 10:06:49;;;;;;;6.15;5.55;;;29.10;53.10;;;;;;5024799;28;20033;-81
2021/07/03 10:09:26;;;;;;;4.93;4.53;;;28.10;52.30;;;;;;5012776;28;20030;-80
2021/07/03 10:11:57;;;;;;;6.28;5.68;;;27.70;53.70;;;;;;5018995;28;20034;-74
2021/07/03 10:14:24;;;;;;;5.65;5.07;;;27.00;56.10;;;;;;5025851;28;20052;-79
2021/07/03 10:17:01;;;;;;;5.63;5.03;;;26.40;55.50;;;;;;5018609;28;20463;-81
2021/07/03 10:19:34;;;;;;;5.50;5.00;;;26.80;54.90;;;;;;5012901;28;20034;-80
2021/07/03 10:22:20;;;;;;;6.00;5.32;;;27.40;54.80;;;;;;5012549;28;20388;-79
2021/07/03 10:25:10;;;;;;;4.93;4.43;;;28.10;52.00;;;;;;5024317;28;20386;-79
2021/07/03 10:27:47;;;;;;;5.95;5.03;;;28.90;53.50;;;;;;5012637;28;20371;-79
2021/07/03 10:30:29;;;;;;;6.65;4.75;;;29.20;51.90;;;;;;5018950;28;20040;-75
2021/07/03 10:33:04;;;;;;;4.90;4.40;;;29.40;52.40;;;;;;5007737;28;20053;-80
2021/07/03 10:35:51;;;;;;;6.63;5.65;;;28.70;52.10;;;;;;5026909;28;20482;-80
2021/07/03 10:38:28;;;;;;;7.32;4.65;;;27.90;53.30;;;;;;5031487;28;20474;-77
2021/07/03 10:41:23;;;;;;;7.20;4.95;;;28.00;53.90;;;;;;5024236;28;20471;-75
2021/07/03 10:44:05;;;;;;;5.68;4.90;;;28.30;51.60;;;;;;5021626;28;20050;-74
2021/07/03 10:46:41;;;;;;;5.63;4.90;;;27.70;52.10;;;;;;5015118;28;20374;-78
2021/07/03 10:49:10;;;;;;;5.05;4.30;;;27.80;53.30;;;;;;5034073;28;20045;-77
2021/07/03 10:51:48;;;;;;;5.00;4.50;;;27.50;53.40;;;;;;5031878;28;20478;-78
2021/07/03 10:54:26;;;;;;;5.95;4.10;;;26.90;52.70;;;;;;5019963;28;20033;-79
2021/07/03 10:57:10;;;;;;;6.32;5.40;;;26.50;53.60;;;;;;5016099;28;20471;-78
2021/07/03 10:59:39;;;;;;;5.40;4.70;;;26.30;54.60;;;;;;5023074;28;20399;-80
2021/07/03 11:02:10;;;;;;;4.53;4.07;;;26.70;54.30;;;;;;5035060;28;20037;-79
2021/07/03 11:04:49;;;;;;;5.55;4.35;;;27.20;52.10;;;;;;5018649;28;20061;-79
2021/07/03 11:07:20;;;;;;;4.85;4.15;;;27.50;54.40;;;;;;5014836;28;20265;-79
2021/07/03 11:09:48;;;;;;;5.18;4.68;;;27.40;52.60;;;;;;5030444;28;20029;-80
2021/07/03 11:12:17;;;;;;;5.60;4.68;;;27.50;51.80;;;;;;5035646;28;20041;-80
2021/07/03 11:14:58;;;;;;;5.43;4.15;;;27.30;53.20;;;;;;5035894;28;20045;-79
2021/07/03 11:17:26;;;;;;;5.43;4.47;;;27.30;51.80;;;;;;5033568;28;20045;-79
2021/07/03 11:19:55;;;;;;;4.90;4.35;;;27.40;52.10;;;;;;5035089;28;20045;-75
2021/07/03 11:22:23;;;;;;;5.28;4.00;;;27.30;51.50;;;;;;5035131;28;20025;-78
2021/07/03 11:24:51;;;;;;;4.18;3.78;;;27.50;52.90;;;;;;5034845;28;20479;-78
2021/07/03 11:27:27;;;;;;;4.88;4.25;;;27.60;50.80;;;;;;5036831;28;20478;-79
2021/07/03 11:29:55;;;;;;;4.32;3.88;;;27.80;51.60;;;;;;5021534;28;20022;-76
2021/07/03 11:32:22;;;;;;;4.63;4.05;;;27.70;50.60;;;;;;5027094;28;20034;-81
2021/07/03 11:35:04;;;;;;;5.10;4.60;;;27.80;51.30;;;;;;5026072;28;20162;-82
2021/07/03 11:37:37;;;;;;;4.93;3.95;;;27.50;50.20;;;;;;5024507;28;20036;-81
2021/07/03 11:40:24;;;;;;;5.32;3.60;;;27.00;50.60;;;;;;5033192;28;20040;-79
2021/07/03 11:42:56;;;;;;;3.95;3.53;;;26.90;52.00;;;;;;5036012;28;20045;-78
2021/07/03 11:45:28;;;;;;;5.38;4.28;;;27.20;51.70;;;;;;5038569;28;20045;-81
2021/07/03 11:48:12;;;;;;;4.07;3.58;;;27.30;50.40;;;;;;5039542;28;20033;-75
2021/07/03 11:50:42;;;;;;;6.30;4.18;;;27.50;51.80;;;;;;5030623;28;20101;-79
2021/07/03 11:53:10;;;;;;;5.45;3.55;;;28.10;50.20;;;;;;5016749;28;20053;-79
2021/07/03 11:55:44;;;;;;;4.93;4.50;;;28.40;49.90;;;;;;4999842;28;20041;-78
2021/07/03 11:58:16;;;;;;;4.35;3.95;;;28.00;47.90;;;;;;5027301;28;20100;-77
2021/07/03 12:00:49;;;;;;;4.00;3.60;;;27.80;48.60;;;;;;5020098;28;20037;-79
2021/07/03 12:03:17;;;;;;;4.35;3.42;;;27.70;49.70;;;;;;5015029;28;20034;-77
2021/07/03 12:05:49;;;;;;;5.80;3.70;;;28.10;49.50;;;;;;5024250;28;20042;-78
2021/07/03 12:08:16;;;;;;;5.95;3.78;;;28.00;48.70;;;;;;5013770;28;20034;-80
2021/07/03 12:10:57;;;;;;;3.92;3.35;;;27.30;49.20;;;;;;5028816;28;20041;-78
2021/07/03 12:13:35;;;;;;;5.35;3.63;;;27.30;50.30;;;;;;5034490;28;20038;-79
2021/07/03 12:16:09;;;;;;;3.95;3.50;;;27.40;49.10;;;;;;5028472;28;20391;-77
2021/07/03 12:18:55;;;;;;;5.05;3.30;;;27.50;49.20;;;;;;5027443;28;20029;-78
2021/07/03 12:21:29;;;;;;;4.47;3.95;;;27.30;49.10;;;;;;5048087;28;20040;-81
2021/07/03 12:24:04;;;;;;;7.90;4.63;;;27.40;49.30;;;;;;5041829;28;20470;-76
2021/07/03 12:26:37;;;;;;;6.50;4.68;;;27.00;49.30;;;;;;5027409;28;20038;-79
2021/07/03 12:29:08;;;;;;;4.97;3.90;;;26.70;51.10;;;;;;5033520;28;20041;-80
2021/07/03 12:31:37;;;;;;;5.45;4.22;;;26.60;51.20;;;;;;5020098;28;20364;-79
2021/07/03 12:34:11;;;;;;;4.90;4.35;;;26.30;50.40;;;;;;5033470;28;20037;-78
2021/07/03 12:36:44;;;;;;;5.43;4.05;;;25.90;51.50;;;;;;5022045;28;20045;-78
2021/07/03 12:39:13;;;;;;;4.32;3.80;;;25.70;50.30;;;;;;5005764;28;20038;-78
2021/07/03 12:41:43;;;;;;;7.97;4.07;;;25.90;51.60;;;;;;5026017;28;20478;-74
2021/07/03 12:44:09;;;;;;;4.87;3.80;;;26.00;50.40;;;;;;5024459;28;20305;-78
2021/07/03 12:46:37;;;;;;;4.93;4.13;;;26.20;51.60;;;;;;5023367;28;20037;-78
2021/07/03 12:49:05;;;;;;;5.43;4.63;;;26.60;50.20;;;;;;5027082;28;20069;-78